createdAt,value
2018-02-24T00:00:42.221Z,19.23
2018-02-24T00:03:09.741Z,20.17
2018-02-24T00:05:37.318Z,21.02
2018-02-24T00:08:05.595Z,19.25
2018-02-24T00:10:33.886Z,20.67
2018-02-24T00:13:01.395Z,20.27
2018-02-24T00:15:28.913Z,20.50
2018-02-24T00:17:56.414Z,20.75
2018-02-24T00:20:23.935Z,21.20
2018-02-24T00:22:51.441Z,22.13
2018-02-24T00:25:18.958Z,20.75
2018-02-24T00:27:46.484Z,21.23
2018-02-24T00:30:13.994Z,19.98
2018-02-24T00:32:41.533Z,21.40
2018-02-24T00:35:09.045Z,22.83
2018-02-24T00:37:36.569Z,22.40
2018-02-24T00:40:04.088Z,20.90
2018-02-24T00:42:31.608Z,18.55
2018-02-24T00:44:59.129Z,19.77
2018-02-24T00:47:26.651Z,19.25
2018-02-24T00:49:54.185Z,18.87
2018-02-24T00:52:21.706Z,21.17
2018-02-24T00:54:49.215Z,21.62
2018-02-24T00:57:16.737Z,20.33
2018-02-24T00:59:44.258Z,18.23
2018-02-24T01:02:11.787Z,19.40
2018-02-24T01:04:39.295Z,19.20
2018-02-24T01:07:06.840Z,19.08
2018-02-24T01:09:34.353Z,16.80
2018-02-24T01:12:01.879Z,19.30
2018-02-24T01:14:29.396Z,18.23
2018-02-24T01:16:57.693Z,18.98
2018-02-24T01:19:25.211Z,19.17
2018-02-24T01:21:52.734Z,19.23
2018-02-24T01:24:20.272Z,18.45
2018-02-24T01:26:47.786Z,19.23
2018-02-24T01:29:15.319Z,19.30
2018-02-24T01:31:42.821Z,18.60
2018-02-24T01:34:11.110Z,19.10
2018-02-24T01:36:38.610Z,18.92
2018-02-24T01:39:06.906Z,18.30
2018-02-24T01:41:34.409Z,19.37
2018-02-24T01:44:01.938Z,18.42
2018-02-24T01:46:30.222Z,21.10
2018-02-24T01:48:58.524Z,19.17
2018-02-24T01:51:26.042Z,17.40
2018-02-24T01:53:53.575Z,20.40
2018-02-24T01:56:21.093Z,19.48
2018-02-24T01:58:48.614Z,19.12
2018-02-24T02:01:16.129Z,19.67
2018-02-24T02:03:43.664Z,18.55
2018-02-24T02:06:11.941Z,19.05
2018-02-24T02:08:40.225Z,18.00
2018-02-24T02:11:08.506Z,18.42
2018-02-24T02:13:36.040Z,20.12
2018-02-24T02:16:04.327Z,20.83
2018-02-24T02:18:32.605Z,18.65
2018-02-24T02:21:00.976Z,17.95
2018-02-24T02:23:28.540Z,18.60
2018-02-24T02:25:56.826Z,18.33
2018-02-24T02:28:25.123Z,20.52
2018-02-24T02:30:52.622Z,19.15
2018-02-24T02:33:20.170Z,20.25
2018-02-24T02:35:47.688Z,17.75
2018-02-24T02:38:15.217Z,18.23
2018-02-24T02:40:43.503Z,20.55
2018-02-24T02:43:11.804Z,20.08
2018-02-24T02:45:39.314Z,21.05
2018-02-24T02:48:06.852Z,18.73
2018-02-24T02:50:34.378Z,19.70
2018-02-24T02:53:01.883Z,20.45
2018-02-24T02:55:29.405Z,21.33
2018-02-24T02:57:56.910Z,20.35
2018-02-24T03:00:24.456Z,20.85
2018-02-24T03:02:52.005Z,20.00
2018-02-24T03:05:19.530Z,17.55
2018-02-24T03:07:47.069Z,19.95
2018-02-24T03:10:15.369Z,18.70
2018-02-24T03:12:42.900Z,19.90
2018-02-24T03:15:11.185Z,20.65
2018-02-24T03:17:39.455Z,19.55
2018-02-24T03:20:07.734Z,21.23
2018-02-24T03:22:36.007Z,21.27
2018-02-24T03:25:04.303Z,20.95
2018-02-24T03:27:31.805Z,19.40
2018-02-24T03:29:59.379Z,20.58
2018-02-24T03:32:26.938Z,19.50
2018-02-24T03:34:54.467Z,18.85
2018-02-24T03:37:21.975Z,22.00
2018-02-24T03:39:50.261Z,19.40
2018-02-24T03:42:17.758Z,21.50
2018-02-24T03:44:45.266Z,20.17
2018-02-24T03:47:13.550Z,21.00
2018-02-24T03:49:41.830Z,21.75
2018-02-24T03:52:09.352Z,21.35
2018-02-24T03:54:36.890Z,23.25
2018-02-24T03:57:04.394Z,19.75
2018-02-24T03:59:32.701Z,19.67
2018-02-24T04:02:00.212Z,21.45
2018-02-24T04:04:27.743Z,19.27
2018-02-24T04:06:55.246Z,19.37
2018-02-24T04:09:23.536Z,20.73
2018-02-24T04:11:51.067Z,21.12
2018-02-24T04:14:18.588Z,20.48
2018-02-24T04:16:46.872Z,22.23
2018-02-24T04:19:14.410Z,21.77
2018-02-24T04:21:41.933Z,21.52
2018-02-24T04:24:10.223Z,20.70
2018-02-24T04:26:38.485Z,18.92
2018-02-24T04:29:06.808Z,19.40
2018-02-24T04:31:34.329Z,20.15
2018-02-24T04:34:02.605Z,21.90
2018-02-24T04:36:30.915Z,19.37
2018-02-24T04:38:58.448Z,20.17
2018-02-24T04:41:26.730Z,22.52
2018-02-24T04:43:54.254Z,18.58
2018-02-24T04:46:21.763Z,20.48
2018-02-24T04:48:49.273Z,22.45
2018-02-24T04:51:16.796Z,20.15
2018-02-24T04:53:44.332Z,22.08
2018-02-24T04:56:11.864Z,20.35
2018-02-24T04:58:40.168Z,19.12
2018-02-24T05:01:07.680Z,22.30
2018-02-24T05:03:35.220Z,20.10
2018-02-24T05:06:02.741Z,21.85
2018-02-24T05:08:30.266Z,20.77
2018-02-24T05:10:57.784Z,20.80
2018-02-24T05:13:25.334Z,19.23
2018-02-24T05:15:52.838Z,19.67
2018-02-24T05:18:20.376Z,19.75
2018-02-24T05:20:47.888Z,19.70
2018-02-24T05:23:15.408Z,18.65
2018-02-24T05:25:42.905Z,21.67
2018-02-24T05:28:10.445Z,21.70
2018-02-24T05:30:38.714Z,20.75
2018-02-24T05:33:07.005Z,20.77
2018-02-24T05:35:34.524Z,20.05
2018-02-24T05:38:02.045Z,20.75
2018-02-24T05:40:29.558Z,20.42
2018-02-24T05:42:57.071Z,20.42
2018-02-24T05:45:24.605Z,17.65
2018-02-24T05:47:52.118Z,18.87
2018-02-24T05:50:19.648Z,19.12
2018-02-24T05:52:47.154Z,19.17
2018-02-24T05:55:14.681Z,18.27
2018-02-24T05:57:42.941Z,19.83
2018-02-24T06:00:10.464Z,21.83
2018-02-24T06:02:38.730Z,20.37
2018-02-24T06:05:07.020Z,19.37
2018-02-24T06:07:35.338Z,24.33
2018-02-24T06:10:02.838Z,20.05
2018-02-24T06:12:31.109Z,19.33
2018-02-24T06:14:58.633Z,18.20
2018-02-24T06:17:26.146Z,19.45
2018-02-24T06:19:56.231Z,19.75
2018-02-24T06:22:23.765Z,19.48
2018-02-24T06:24:51.287Z,18.40
2018-02-24T06:27:18.801Z,21.85
2018-02-24T06:29:46.323Z,18.95
2018-02-24T06:32:13.830Z,20.58
2018-02-24T06:34:41.353Z,19.67
2018-02-24T06:37:08.849Z,19.05
2018-02-24T06:39:36.449Z,18.95
2018-02-24T06:42:03.913Z,18.42
2018-02-24T06:44:31.522Z,21.65
2018-02-24T06:46:59.017Z,20.27
2018-02-24T06:49:26.538Z,19.12
2018-02-24T06:51:54.068Z,18.77
2018-02-24T06:54:21.582Z,18.17
2018-02-24T06:56:49.870Z,19.10
2018-02-24T06:59:17.395Z,18.55
2018-02-24T07:01:44.907Z,20.23
2018-02-24T07:04:12.432Z,20.30
2018-02-24T07:06:40.720Z,20.02
2018-02-24T07:09:08.252Z,19.70
2018-02-24T07:11:35.768Z,21.90
2018-02-24T07:14:03.290Z,21.75
2018-02-24T07:16:30.796Z,21.90
2018-02-24T07:18:58.328Z,20.95
2018-02-24T07:21:25.851Z,21.98
2018-02-24T07:23:53.395Z,18.95
2018-02-24T07:26:20.894Z,17.98
2018-02-24T07:28:48.428Z,19.58
2018-02-24T07:31:16.697Z,26.02
2018-02-24T07:33:45.009Z,25.02
2018-02-24T07:36:12.519Z,20.15
2018-02-24T07:38:40.062Z,24.20
2018-02-24T07:41:07.590Z,21.48
2018-02-24T07:43:35.114Z,20.50
2018-02-24T07:46:02.637Z,20.48
2018-02-24T07:48:30.163Z,21.67
2018-02-24T07:50:57.686Z,17.45
2018-02-24T07:53:25.984Z,19.52
2018-02-24T07:55:53.506Z,19.05
2018-02-24T07:58:21.018Z,18.52
2018-02-24T08:00:48.528Z,19.37
2018-02-24T08:03:16.067Z,18.75
2018-02-24T08:05:43.584Z,17.00
2018-02-24T08:08:11.114Z,18.30
2018-02-24T08:10:39.402Z,18.50
2018-02-24T08:13:06.925Z,17.92
2018-02-24T08:15:34.423Z,17.55
2018-02-24T08:18:01.941Z,17.75
2018-02-24T08:20:29.549Z,15.73
2018-02-24T08:22:57.067Z,13.77
2018-02-24T08:25:24.601Z,13.57
2018-02-24T08:27:52.136Z,15.07
2018-02-24T08:30:19.659Z,14.50
2018-02-24T08:32:47.917Z,16.12
2018-02-24T08:35:15.500Z,15.43
2018-02-24T08:37:43.936Z,16.85
2018-02-24T08:40:12.213Z,14.75
2018-02-24T08:42:39.741Z,14.85
2018-02-24T08:45:07.278Z,14.52
2018-02-24T08:47:35.556Z,15.35
2018-02-24T08:50:03.845Z,15.75
2018-02-24T08:52:31.354Z,15.93
2018-02-24T08:54:58.927Z,16.10
2018-02-24T08:57:26.437Z,14.38
2018-02-24T08:59:53.958Z,13.75
2018-02-24T09:02:22.240Z,11.00
2018-02-24T09:04:50.531Z,10.30
2018-02-24T09:07:18.025Z,11.38
2018-02-24T09:09:45.553Z,10.85
2018-02-24T09:12:13.073Z,12.48
2018-02-24T09:14:41.373Z,11.75
2018-02-24T09:17:08.874Z,11.43
2018-02-24T09:19:36.391Z,10.73
2018-02-24T09:22:03.878Z,9.32
2018-02-24T09:24:31.526Z,11.12
2018-02-24T09:26:59.040Z,10.20
2018-02-24T09:29:27.346Z,10.90
2018-02-24T09:31:54.851Z,8.50
2018-02-24T09:34:22.381Z,9.88
2018-02-24T09:36:49.893Z,10.70
2018-02-24T09:39:18.184Z,10.13
2018-02-24T09:41:45.688Z,10.85
2018-02-24T09:44:13.207Z,9.95
2018-02-24T09:46:40.711Z,11.30
2018-02-24T09:49:08.237Z,9.95
2018-02-24T09:51:35.751Z,10.65
2018-02-24T09:54:04.057Z,8.93
2018-02-24T09:56:31.564Z,10.00
2018-02-24T09:58:59.072Z,10.55
2018-02-24T10:01:26.620Z,9.73
2018-02-24T10:03:54.157Z,10.15
2018-02-24T10:06:21.651Z,9.40
2018-02-24T10:08:50.221Z,10.43
2018-02-24T10:11:18.251Z,9.15
2018-02-24T10:13:46.300Z,8.30
2018-02-24T10:16:13.809Z,9.90
2018-02-24T10:18:42.104Z,11.27
2018-02-24T10:21:09.613Z,8.40
2018-02-24T10:23:37.141Z,9.52
2018-02-24T10:26:04.643Z,8.70
2018-02-24T10:28:32.145Z,8.63
2018-02-24T10:30:59.654Z,8.60
2018-02-24T10:33:27.203Z,8.65
2018-02-24T10:35:54.678Z,8.70
2018-02-24T10:38:22.273Z,9.00
2018-02-24T10:40:49.757Z,7.93
2018-02-24T10:43:17.282Z,6.65
2018-02-24T10:45:44.790Z,7.47
2018-02-24T10:48:12.302Z,6.57
2018-02-24T10:50:39.819Z,6.97
2018-02-24T10:53:07.319Z,6.57
2018-02-24T10:55:34.851Z,6.70
2018-02-24T10:58:02.594Z,6.28
2018-02-24T11:00:30.132Z,6.25
2018-02-24T11:02:57.661Z,5.32
2018-02-24T11:05:25.161Z,5.43
2018-02-24T11:07:52.670Z,4.78
2018-02-24T11:10:20.210Z,4.60
2018-02-24T11:12:48.500Z,4.90
2018-02-24T11:15:16.015Z,4.55
2018-02-24T11:17:43.523Z,4.55
2018-02-24T11:20:11.038Z,4.78
2018-02-24T11:22:38.534Z,4.05
2018-02-24T11:25:06.824Z,5.37
2018-02-24T11:27:34.338Z,4.78
2018-02-24T11:30:01.851Z,5.03
2018-02-24T11:32:29.610Z,5.03
2018-02-24T11:34:57.141Z,4.85
2018-02-24T11:37:25.414Z,5.28
2018-02-24T11:39:53.689Z,5.00
2018-02-24T11:42:21.959Z,4.55
2018-02-24T11:44:50.257Z,6.00
2018-02-24T11:47:17.866Z,5.28
2018-02-24T11:49:45.414Z,4.97
2018-02-24T11:52:12.928Z,3.45
2018-02-24T11:54:41.210Z,5.60
2018-02-24T11:57:08.719Z,5.20
2018-02-24T11:59:36.234Z,5.25
2018-02-24T12:02:03.750Z,6.45
2018-02-24T12:04:31.279Z,6.30
2018-02-24T12:06:58.788Z,7.00
2018-02-24T12:09:27.058Z,6.85
2018-02-24T12:11:54.549Z,5.40
2018-02-24T12:14:22.089Z,6.15
2018-02-24T12:16:50.352Z,6.12
2018-02-24T12:19:17.898Z,6.62
2018-02-24T12:21:45.385Z,7.22
2018-02-24T12:24:13.671Z,6.75
2018-02-24T12:26:41.166Z,7.05
2018-02-24T12:29:09.455Z,6.82
2018-02-24T12:31:37.033Z,8.55
2018-02-24T12:34:04.562Z,7.25
2018-02-24T12:36:32.076Z,6.43
2018-02-24T12:39:00.364Z,6.70
2018-02-24T12:41:27.862Z,6.40
2018-02-24T12:43:55.381Z,7.20
2018-02-24T12:46:22.891Z,8.57
2018-02-24T12:48:50.532Z,6.47
2018-02-24T12:51:18.022Z,6.85
2018-02-24T12:53:45.548Z,10.50
2018-02-24T12:56:13.056Z,13.35
2018-02-24T12:58:41.344Z,17.35
2018-02-24T13:01:10.657Z,14.77
2018-02-24T13:03:38.181Z,11.15
2018-02-24T13:06:06.455Z,10.48
2018-02-24T13:08:33.975Z,8.48
2018-02-24T13:11:01.467Z,8.57
2018-02-24T13:13:28.974Z,8.32
2018-02-24T13:15:56.475Z,8.80
2018-02-24T13:18:23.992Z,8.73
2018-02-24T13:20:51.481Z,9.75
2018-02-24T13:23:18.985Z,8.90
2018-02-24T13:25:46.479Z,9.82
2018-02-24T13:28:14.015Z,9.30
2018-02-24T13:30:41.533Z,8.10
2018-02-24T13:33:09.803Z,10.48
2018-02-24T13:35:37.332Z,10.15
2018-02-24T13:38:04.837Z,10.93
2018-02-24T13:40:33.124Z,11.27
2018-02-24T13:43:01.493Z,8.27
2018-02-24T13:45:29.788Z,8.98
2018-02-24T13:47:57.296Z,8.15
2018-02-24T13:50:24.803Z,8.85
2018-02-24T13:52:53.062Z,9.05
2018-02-24T13:55:21.360Z,7.82
2018-02-24T13:57:48.882Z,6.95
2018-02-24T14:00:16.405Z,8.30
2018-02-24T14:02:43.917Z,10.25
2018-02-24T14:05:12.205Z,9.65
2018-02-24T14:07:39.693Z,6.72
2018-02-24T14:10:07.206Z,6.90
2018-02-24T14:12:35.480Z,7.50
2018-02-24T14:15:03.755Z,8.85
2018-02-24T14:17:32.005Z,8.02
2018-02-24T14:19:59.529Z,7.72
2018-02-24T14:22:27.089Z,10.25
2018-02-24T14:24:54.599Z,9.60
2018-02-24T14:27:22.086Z,7.82
2018-02-24T14:29:49.624Z,7.28
2018-02-24T14:32:17.152Z,6.25
2018-02-24T14:34:44.716Z,6.03
2018-02-24T14:37:12.228Z,5.40
2018-02-24T14:39:39.738Z,6.12
2018-02-24T14:42:07.234Z,5.95
2018-02-24T14:44:34.746Z,6.17
2018-02-24T14:47:02.265Z,5.25
2018-02-24T14:49:30.538Z,5.25
2018-02-24T14:51:58.053Z,4.80
2018-02-24T14:54:25.561Z,4.57
2018-02-24T14:56:53.065Z,5.43
2018-02-24T14:59:20.593Z,5.85
2018-02-24T15:01:48.136Z,6.45
2018-02-24T15:04:15.638Z,6.53
2018-02-24T15:06:43.129Z,5.35
2018-02-24T15:09:10.700Z,4.50
2018-02-24T15:11:38.216Z,4.00
2018-02-24T15:14:05.727Z,4.28
2018-02-24T15:16:33.218Z,4.75
2018-02-24T15:19:00.726Z,4.35
2018-02-24T15:21:28.240Z,4.15
2018-02-24T15:23:55.862Z,4.55
2018-02-24T15:26:23.354Z,4.70
2018-02-24T15:28:50.881Z,5.15
2018-02-24T15:31:18.361Z,4.22
2018-02-24T15:33:45.876Z,3.85
2018-02-24T15:36:13.387Z,2.78
2018-02-24T15:38:40.894Z,3.30
2018-02-24T15:41:08.391Z,3.33
2018-02-24T15:43:35.941Z,2.47
2018-02-24T15:46:03.534Z,2.72
2018-02-24T15:48:31.052Z,2.65
2018-02-24T15:50:59.412Z,2.40
2018-02-24T15:53:26.917Z,2.70
2018-02-24T15:55:54.406Z,2.37
2018-02-24T15:58:22.678Z,3.62
2018-02-24T16:00:50.930Z,4.28
2018-02-24T16:03:18.441Z,3.58
2018-02-24T16:05:45.961Z,4.05
2018-02-24T16:08:13.455Z,8.25
2018-02-24T16:10:40.978Z,3.30
2018-02-24T16:13:15.031Z,1.83
2018-02-24T16:15:42.538Z,2.30
2018-02-24T16:18:10.060Z,2.10
2018-02-24T16:20:38.352Z,2.20
